createdAt,value
2022-12-24T19:48:44.497Z,9.80
2022-12-24T19:49:44.108Z,18.90
2022-12-24T19:50:44.097Z,26.00
2022-12-24T19:51:43.979Z,24.80
2022-12-24T19:52:43.860Z,46.50
2022-12-24T19:53:43.872Z,29.30
2022-12-24T19:54:43.742Z,28.80
2022-12-24T19:55:43.743Z,24.90
2022-12-24T19:56:43.751Z,24.70
2022-12-24T19:57:43.636Z,28.80
2022-12-24T19:58:43.625Z,22.10
2022-12-24T19:59:43.990Z,18.60
2022-12-24T20:00:43.653Z,23.10
2022-12-24T20:01:43.866Z,24.90
2022-12-24T20:02:43.814Z,21.50
2022-12-24T20:03:43.547Z,24.50
2022-12-24T20:04:43.544Z,23.00
2022-12-24T20:05:43.399Z,23.90
2022-12-24T20:06:43.393Z,23.60
2022-12-24T20:07:43.397Z,22.50
2022-12-24T20:08:43.282Z,21.70
2022-12-24T20:09:43.036Z,19.60
2022-12-24T20:10:42.929Z,20.80
2022-12-24T20:11:42.945Z,18.70
2022-12-24T20:12:42.921Z,18.50
2022-12-24T20:13:42.807Z,23.40
2022-12-24T20:14:42.929Z,25.50
2022-12-24T20:15:42.698Z,30.20
2022-12-24T20:16:42.751Z,30.10
2022-12-24T20:17:42.689Z,30.40
2022-12-24T20:18:42.570Z,35.10
2022-12-24T20:19:42.569Z,36.20
2022-12-24T20:20:42.594Z,56.40
2022-12-24T20:21:42.455Z,50.40
2022-12-24T20:22:42.458Z,58.30
2022-12-24T20:23:42.341Z,60.20
2022-12-24T20:24:42.333Z,56.10
2022-12-24T20:25:42.355Z,61.50
2022-12-24T20:26:42.219Z,58.70
2022-12-24T20:27:42.216Z,51.20
2022-12-24T20:28:42.096Z,52.40
2022-12-24T20:29:42.101Z,56.40
2022-12-24T20:30:42.098Z,50.30
2022-12-24T20:31:42.059Z,51.90
2022-12-24T20:32:41.991Z,47.30
2022-12-24T20:33:42.342Z,55.30
2022-12-24T20:34:41.866Z,52.90
2022-12-24T20:35:41.866Z,55.10
2022-12-24T20:36:41.771Z,54.00
2022-12-24T20:37:45.972Z,51.30
2022-12-24T20:38:41.627Z,46.70
2022-12-24T20:39:41.632Z,48.60
2022-12-24T20:40:41.633Z,41.80
2022-12-24T20:41:41.530Z,33.00
2022-12-24T20:42:41.530Z,27.60
2022-12-24T20:43:47.427Z,30.30
2022-12-24T20:44:41.635Z,30.60
2022-12-24T20:45:41.465Z,30.20
2022-12-24T20:46:41.275Z,31.80
2022-12-24T20:47:41.289Z,26.70
2022-12-24T20:48:41.276Z,27.70
2022-12-24T20:49:41.281Z,32.70
2022-12-24T20:50:41.173Z,26.90
2022-12-24T20:51:41.048Z,35.80
2022-12-24T20:52:41.051Z,28.10
2022-12-24T20:53:41.082Z,30.60
2022-12-24T20:54:40.925Z,33.60
2022-12-24T20:55:40.921Z,28.60
2022-12-24T20:56:40.821Z,51.80
2022-12-24T20:57:40.818Z,32.80
2022-12-24T20:58:40.740Z,30.40
2022-12-24T20:59:40.621Z,27.20
2022-12-24T21:00:40.618Z,25.80
2022-12-24T21:01:40.727Z,28.80
2022-12-24T21:02:40.630Z,22.20
2022-12-24T21:03:40.542Z,29.60
2022-12-24T21:04:40.378Z,20.90
2022-12-24T21:05:40.382Z,23.00
2022-12-24T21:06:40.380Z,22.90
2022-12-24T21:07:40.267Z,22.80
2022-12-24T21:08:40.280Z,22.20
2022-12-24T21:09:40.143Z,23.50
2022-12-24T21:10:40.146Z,22.60
2022-12-24T21:11:40.146Z,22.30
2022-12-24T21:12:40.026Z,23.50
2022-12-24T21:13:40.028Z,20.00
2022-12-24T21:14:40.034Z,23.10
2022-12-24T21:15:39.941Z,23.40
2022-12-24T21:16:40.026Z,22.80
2022-12-24T21:17:39.787Z,23.70
2022-12-24T21:18:39.783Z,23.90
2022-12-24T21:19:39.788Z,27.30
2022-12-24T21:20:39.665Z,21.90
2022-12-24T21:21:39.676Z,24.10
2022-12-24T21:22:39.556Z,23.30
2022-12-24T21:23:39.552Z,27.60
2022-12-24T21:24:39.566Z,22.30
2022-12-24T21:25:39.427Z,21.70
2022-12-24T21:26:39.424Z,23.00
2022-12-24T21:27:39.429Z,26.80
2022-12-24T21:28:39.320Z,22.90
2022-12-24T21:29:39.312Z,26.20
2022-12-24T21:30:39.316Z,20.70
2022-12-24T21:31:39.202Z,22.90
2022-12-24T21:32:39.200Z,22.60
2022-12-24T21:33:39.103Z,22.80
2022-12-24T21:34:39.082Z,24.40
2022-12-24T21:35:39.073Z,30.40
2022-12-24T21:36:38.971Z,27.90
2022-12-24T21:37:38.965Z,29.00
2022-12-24T21:38:38.841Z,27.30
2022-12-24T21:39:38.862Z,23.30
2022-12-24T21:40:38.865Z,27.50
2022-12-24T21:41:38.726Z,25.00
2022-12-24T21:42:38.723Z,28.00
2022-12-24T21:43:38.702Z,24.40
2022-12-24T21:44:38.610Z,23.90
2022-12-24T21:45:38.657Z,28.90
2022-12-24T21:46:38.600Z,30.10
2022-12-24T21:47:38.490Z,27.90
2022-12-24T21:48:38.487Z,24.10
2022-12-24T21:49:38.373Z,29.20
2022-12-24T21:50:38.370Z,24.40
2022-12-24T21:51:38.340Z,22.00
2022-12-24T21:52:38.253Z,30.10
2022-12-24T21:53:38.256Z,22.80
2022-12-24T21:54:38.151Z,26.60
2022-12-24T21:55:38.144Z,20.90
2022-12-24T21:56:38.152Z,22.60
2022-12-24T21:57:38.030Z,24.20
2022-12-24T21:58:38.027Z,21.50
2022-12-24T21:59:38.004Z,18.40
2022-12-24T22:00:37.900Z,23.40
2022-12-24T22:01:38.034Z,19.00
2022-12-24T22:02:38.057Z,21.40
2022-12-24T22:03:37.851Z,23.20
2022-12-24T22:04:37.786Z,20.60
2022-12-24T22:05:37.671Z,21.20
2022-12-24T22:06:37.673Z,20.50
2022-12-24T22:07:37.555Z,21.40
2022-12-24T22:08:37.551Z,26.10
2022-12-24T22:09:37.547Z,15.80
2022-12-24T22:10:37.442Z,17.40
2022-12-24T22:11:37.528Z,23.30
2022-12-24T22:12:37.457Z,19.10
2022-12-24T22:13:37.402Z,22.10
2022-12-24T22:14:37.403Z,20.10
2022-12-24T22:15:37.288Z,19.10
2022-12-24T22:16:37.395Z,18.10
2022-12-24T22:17:37.291Z,21.40
2022-12-24T22:18:37.170Z,18.70
2022-12-24T22:19:37.171Z,17.50
2022-12-24T22:20:37.167Z,20.20
2022-12-24T22:21:37.059Z,16.20
2022-12-24T22:22:37.053Z,23.50
2022-12-24T22:23:42.056Z,17.20
2022-12-24T22:24:36.949Z,15.70
2022-12-24T22:25:36.946Z,21.10
2022-12-24T22:26:36.820Z,16.50
2022-12-24T22:27:36.817Z,14.80
2022-12-24T22:28:36.848Z,20.00
2022-12-24T22:29:36.706Z,19.10
2022-12-24T22:30:36.757Z,22.90
2022-12-24T22:31:36.661Z,18.10
2022-12-24T22:32:36.582Z,18.30
2022-12-24T22:33:36.583Z,13.70
2022-12-24T22:34:36.464Z,17.90
2022-12-24T22:35:36.467Z,17.30
2022-12-24T22:36:36.594Z,13.20
2022-12-24T22:37:36.591Z,13.80
2022-12-24T22:38:36.356Z,15.70
2022-12-24T22:39:36.229Z,17.00
2022-12-24T22:40:36.240Z,15.70
2022-12-24T22:41:36.234Z,17.60
2022-12-24T22:42:36.239Z,14.70
2022-12-24T22:43:36.233Z,15.40
2022-12-24T22:44:36.269Z,12.50
2022-12-24T22:45:36.237Z,17.90
2022-12-24T22:46:36.244Z,15.20
2022-12-24T22:47:36.121Z,15.60
2022-12-24T22:48:36.120Z,14.60
2022-12-24T22:49:36.032Z,15.10
2022-12-24T22:50:36.001Z,15.60
2022-12-24T22:51:35.922Z,14.50
2022-12-24T22:52:35.911Z,11.70
2022-12-24T22:53:35.648Z,15.70
2022-12-24T22:54:35.560Z,17.80
2022-12-24T22:55:35.767Z,16.50
2022-12-24T22:56:40.772Z,15.00
2022-12-24T22:57:35.408Z,18.90
2022-12-24T22:58:35.411Z,14.00
2022-12-24T22:59:35.556Z,15.60
2022-12-24T23:00:35.317Z,14.30
2022-12-24T23:01:35.447Z,11.20
2022-12-24T23:02:35.575Z,13.80
2022-12-24T23:03:35.274Z,13.90
2022-12-24T23:04:35.071Z,14.90
2022-12-24T23:05:35.682Z,15.80
2022-12-24T23:06:35.059Z,15.30
2022-12-24T23:07:35.182Z,15.40
2022-12-24T23:08:34.961Z,19.60
2022-12-24T23:09:35.305Z,17.10
2022-12-24T23:10:35.305Z,16.00
2022-12-24T23:11:34.841Z,11.40
2022-12-24T23:12:35.183Z,17.00
2022-12-24T23:13:34.710Z,16.60
2022-12-24T23:14:34.725Z,12.00
2022-12-24T23:15:34.625Z,13.50
2022-12-24T23:16:34.611Z,15.70
2022-12-24T23:17:34.589Z,15.70
2022-12-24T23:18:34.471Z,14.30
2022-12-24T23:19:34.470Z,17.20
2022-12-24T23:20:34.645Z,15.40
2022-12-24T23:21:34.369Z,13.70
2022-12-24T23:22:34.360Z,16.80
2022-12-24T23:23:37.088Z,17.20
2022-12-24T23:24:34.356Z,20.40
2022-12-24T23:25:34.120Z,18.30
2022-12-24T23:26:34.136Z,16.50
2022-12-24T23:27:34.122Z,17.70
2022-12-24T23:28:34.124Z,12.90
2022-12-24T23:29:34.247Z,15.60
2022-12-24T23:30:34.004Z,13.60
2022-12-24T23:31:33.938Z,15.00
2022-12-24T23:32:33.886Z,16.60
2022-12-24T23:33:33.765Z,14.60
2022-12-24T23:34:33.764Z,13.00
2022-12-24T23:35:33.765Z,14.50
2022-12-24T23:36:34.180Z,11.20
2022-12-24T23:37:35.440Z,13.80
2022-12-24T23:38:33.705Z,15.20
2022-12-24T23:39:33.790Z,10.70
2022-12-24T23:41:33.345Z,10.90
2022-12-24T23:42:33.348Z,15.40
2022-12-24T23:43:33.347Z,14.30
2022-12-24T23:44:33.238Z,14.00
2022-12-24T23:45:33.229Z,15.50
2022-12-24T23:46:33.150Z,13.90
2022-12-24T23:47:33.107Z,10.90
2022-12-24T23:48:33.150Z,13.80
2022-12-24T23:49:32.987Z,15.00
2022-12-24T23:50:32.988Z,12.90
2022-12-24T23:51:32.966Z,11.50
2022-12-24T23:52:32.873Z,12.50
2022-12-24T23:53:32.868Z,11.70
2022-12-24T23:54:32.780Z,11.80
2022-12-24T23:55:32.752Z,10.90
2022-12-24T23:56:32.770Z,12.80
2022-12-24T23:57:32.634Z,13.80
2022-12-24T23:58:32.641Z,13.70
2022-12-24T23:59:32.516Z,12.70
